This is the latest recevied weather packets stored in our database for station/object IU5JAE-13. If no packets are shown the sender has not sent any weather packets the latest 10 day(s).
| Time | Temp. | Humidity | Pressure | Rain* | Wind** | Luminosity | Snow |
|---|---|---|---|---|---|---|---|
| 1777556120 | 20° C | 42% | 1020 hPa | 0 mm | - | 521 W/m² | - |
| 1777555517 | 20.56° C | 42% | 1020 hPa | 0 mm | - | 517 W/m² | - |
| 1777554935 | 20° C | 44% | 1020.1 hPa | 0 mm | - | 579 W/m² | - |
| 1777554333 | 20° C | 43% | 1020.1 hPa | 0 mm | - | 593 W/m² | - |
| 1777553730 | 20.56° C | 43% | 1020.1 hPa | 0 mm | - | 636 W/m² | - |
| 1777553128 | 20° C | 42% | 1020.4 hPa | 0 mm | - | 687 W/m² | - |
| 1777552525 | 20° C | 42% | 1020.5 hPa | 0 mm | - | 705 W/m² | - |
| 1777551923 | 18.89° C | 46% | 1020.4 hPa | 0 mm | - | 654 W/m² | - |
| 1777551320 | 19.44° C | 46% | 1020.4 hPa | 0 mm | - | 192 W/m² | - |
| 1777550718 | 20° C | 44% | 1020.3 hPa | 0 mm | - | 667 W/m² | - |
| 1777550115 | 20° C | 44% | 1020.3 hPa | 0 mm | - | 458 W/m² | - |
| 1777549533 | 20° C | 45% | 1020.1 hPa | 0 mm | - | 677 W/m² | - |
| 1777548931 | 20° C | 44% | 1020.2 hPa | 0 mm | - | 685 W/m² | - |
| 1777548328 | 20.56° C | 43% | 1020.1 hPa | 0 mm | - | 705 W/m² | - |
| 1777547726 | 19.44° C | 47% | 1020.1 hPa | 0 mm | - | 735 W/m² | - |
| 1777547123 | 18.89° C | 47% | 1020.2 hPa | 0 mm | - | 309 W/m² | - |
| 1777546521 | 19.44° C | 45% | 1020.1 hPa | 0 mm | - | 378 W/m² | - |
| 1777545919 | 20° C | 45% | 1019.9 hPa | 0 mm | - | 699 W/m² | - |
| 1777545316 | 20.56° C | 43% | 1020.1 hPa | 0 mm | - | 647 W/m² | - |
| 1777544734 | 20° C | 46% | 1020 hPa | 0 mm | - | 682 W/m² | - |
| 1777544131 | 18.89° C | 46% | 1020.1 hPa | 0 mm | - | 673 W/m² | - |
| 1777543529 | 18.89° C | 46% | 1019.9 hPa | 0 mm | - | 655 W/m² | - |
| 1777542927 | 19.44° C | 47% | 1020 hPa | 0 mm | - | 643 W/m² | - |
| 1777542324 | 19.44° C | 46% | 1020 hPa | 0 mm | - | 628 W/m² | - |
| 1777541722 | 19.44° C | 46% | 1020 hPa | 0 mm | - | 618 W/m² | - |
* Rain latest hour (hover to see other rain measurements)
** Current wind speed in m/s (hover to see current wind gust speed)